Ridgetop, Tennessee
Current Conditions -  °F | °C
As of 2:15 PM on Sunday 21 Dec 2014 (Local Time) from KM91 Reporting Station
Clear Clear  
Wind Chill: 52°   Ceiling: Unl
Heat Index: 52°   Visibility: 8mi
Dew Point: 32°   Wind: 7mph
Humidity: 47%   Direction: 70°ENE
Pressure: 30.08"   Gusts: NA
Location:  36.4°N, 86.78°W
Report Text: KM91 212015Z AUTO 07006KT 8SM CLR 11/00 A3008 RMK
Loading
Personal Weather Stations






























Interactive Weather Map New forecast layout! Learn more

10-Day Weather Forecast

Advertisements
Track Severe Weather on mobile